Time;durP1;ratioP1;P1;durP2;ratioP2;P2;SDS_P1;SDS_P2;PMS_P1;PMS_P2;Temp;Humidity;BMP_temperature;BMP_pressure;BME280_temperature;BME280_humidity;BME280_pressure;Samples;Min_cycle;Max_cycle;Signal;HPM_P1;HPM_P2
2024/02/20 00:01:51;;;;;;;153.90;94.20;;;;;;;;;;4953855;29;20437;-50
2024/02/20 00:04:20;;;;;;;141.77;92.30;;;;;;;;;;4945886;29;20397;-53
2024/02/20 00:06:46;;;;;;;155.98;91.88;;;;;;;;;;4947744;29;20052;-52
2024/02/20 00:09:12;;;;;;;151.00;98.90;;;;;;;;;;4953037;29;20031;-55
2024/02/20 00:11:38;;;;;;;143.32;90.18;;;;;;;;;;4954494;28;20060;-51
2024/02/20 00:14:05;;;;;;;150.40;96.28;;;;;;;;;;4953761;29;20488;-51
2024/02/20 00:16:31;;;;;;;147.77;91.68;;;;;;;;;;4946292;29;20487;-52
2024/02/20 00:18:57;;;;;;;151.63;95.60;;;;;;;;;;4954646;29;20201;-50
2024/02/20 00:21:24;;;;;;;139.65;87.95;;;;;;;;;;4953093;29;20083;-52
2024/02/20 00:23:51;;;;;;;135.82;88.07;;;;;;;;;;4954922;28;20054;-50
2024/02/20 00:26:21;;;;;;;142.73;87.78;;;;;;;;;;4941729;28;20035;-51
2024/02/20 00:28:47;;;;;;;143.85;92.22;;;;;;;;;;4954414;29;20038;-51
2024/02/20 00:31:15;;;;;;;142.82;91.40;;;;;;;;;;4945385;29;20024;-50
2024/02/20 00:33:42;;;;;;;149.52;90.25;;;;;;;;;;4935533;29;20024;-49
2024/02/20 00:36:08;;;;;;;139.77;87.53;;;;;;;;;;4948638;29;20027;-52
2024/02/20 00:38:35;;;;;;;139.90;89.30;;;;;;;;;;4954388;28;20027;-52
2024/02/20 00:41:02;;;;;;;141.20;91.07;;;;;;;;;;4954407;28;20530;-49
2024/02/20 00:43:29;;;;;;;148.60;95.40;;;;;;;;;;4953122;29;20035;-52
2024/02/20 00:45:55;;;;;;;;;;;;;;;;;;4946707;28;20032;-51
2024/02/20 00:48:21;;;;;;;147.05;90.50;;;;;;;;;;4935141;29;19917;-50
2024/02/20 00:50:47;;;;;;;148.27;93.47;;;;;;;;;;4947061;29;20031;-49
2024/02/20 00:53:14;;;;;;;139.75;91.28;;;;;;;;;;4934224;29;20023;-52
2024/02/20 00:55:41;;;;;;;142.00;91.18;;;;;;;;;;4940386;29;20090;-50
2024/02/20 00:58:07;;;;;;;148.35;92.35;;;;;;;;;;4999303;23;20018;-46
2024/02/20 01:00:33;;;;;;;129.50;86.15;;;;;;;;;;5009866;28;20053;-47
2024/02/20 01:03:00;;;;;;;146.70;91.50;;;;;;;;;;5015006;28;20053;-47
2024/02/20 01:05:26;;;;;;;141.23;94.78;;;;;;;;;;4997984;28;20030;-46
2024/02/20 01:07:53;;;;;;;133.48;87.15;;;;;;;;;;4992906;28;20486;-47
2024/02/20 01:10:19;;;;;;;153.93;93.80;;;;;;;;;;4992271;28;20479;-45
2024/02/20 01:12:45;;;;;;;144.10;91.00;;;;;;;;;;4992502;28;20426;-46
2024/02/20 01:15:12;;;;;;;153.63;95.05;;;;;;;;;;4992034;28;20037;-47
2024/02/20 01:17:39;;;;;;;168.38;101.53;;;;;;;;;;4992323;28;20022;-47
2024/02/20 01:20:06;;;;;;;174.43;107.57;;;;;;;;;;4992482;28;20483;-47
2024/02/20 01:22:32;;;;;;;163.95;101.00;;;;;;;;;;4990937;28;20026;-47
2024/02/20 01:24:59;;;;;;;170.27;108.88;;;;;;;;;;4992280;28;20026;-46
2024/02/20 01:27:25;;;;;;;161.23;103.67;;;;;;;;;;4991098;28;20031;-46
2024/02/20 01:29:51;;;;;;;173.32;103.30;;;;;;;;;;4992333;28;20026;-49
2024/02/20 01:32:17;;;;;;;166.07;105.13;;;;;;;;;;4992482;28;20042;-47
2024/02/20 01:34:43;;;;;;;169.80;108.75;;;;;;;;;;4990959;28;20026;-49
2024/02/20 01:37:10;;;;;;;160.00;98.32;;;;;;;;;;4992059;28;20438;-50
2024/02/20 01:39:36;;;;;;;171.40;105.55;;;;;;;;;;4990932;28;20438;-49
2024/02/20 01:42:02;;;;;;;147.95;99.38;;;;;;;;;;4991014;28;20030;-47
2024/02/20 01:44:32;;;;;;;160.85;103.15;;;;;;;;;;4992249;28;20403;-47
2024/02/20 01:46:59;;;;;;;152.63;97.40;;;;;;;;;;4991794;28;20113;-46
2024/02/20 01:49:25;;;;;;;158.68;99.60;;;;;;;;;;4974681;28;20479;-48
2024/02/20 01:51:52;;;;;;;156.45;100.80;;;;;;;;;;4991835;28;20031;-46
2024/02/20 01:54:19;;;;;;;169.25;105.65;;;;;;;;;;4971620;28;20073;-46
2024/02/20 01:56:45;;;;;;;156.27;95.88;;;;;;;;;;4989192;28;20033;-46
2024/02/20 01:59:12;;;;;;;156.25;100.93;;;;;;;;;;4991894;28;20044;-46
2024/02/20 02:01:38;;;;;;;167.15;103.50;;;;;;;;;;4991888;28;20450;-50
2024/02/20 02:04:04;;;;;;;157.75;99.10;;;;;;;;;;4991849;28;20026;-50
2024/02/20 02:06:31;;;;;;;163.13;101.05;;;;;;;;;;4990287;28;20041;-50
2024/02/20 02:08:58;;;;;;;154.75;102.50;;;;;;;;;;4992946;28;20061;-49
2024/02/20 02:11:24;;;;;;;157.37;103.07;;;;;;;;;;4995851;28;20049;-50
2024/02/20 02:13:50;;;;;;;152.43;103.03;;;;;;;;;;4995759;28;20267;-48
2024/02/20 02:19:46;;;;;;;181.90;111.60;;;;;;;;;;4995907;28;20426;-46
2024/02/20 02:22:12;;;;;;;189.80;121.13;;;;;;;;;;4995457;28;20030;-46
2024/02/20 02:24:38;;;;;;;179.13;111.68;;;;;;;;;;4995662;28;20038;-48
2024/02/20 02:27:05;;;;;;;186.20;112.55;;;;;;;;;;4995103;28;20034;-49
2024/02/20 02:29:31;;;;;;;192.25;117.03;;;;;;;;;;4995539;28;20058;-48
2024/02/20 02:31:58;;;;;;;184.82;117.15;;;;;;;;;;4995307;28;20038;-52
2024/02/20 02:34:27;;;;;;;185.32;121.40;;;;;;;;;;4994081;28;20475;-48
2024/02/20 02:36:54;;;;;;;167.80;108.30;;;;;;;;;;4995042;28;20038;-47
2024/02/20 02:39:22;;;;;;;181.98;114.65;;;;;;;;;;4993889;28;20030;-47
2024/02/20 02:41:49;;;;;;;180.73;114.07;;;;;;;;;;4995586;28;20061;-46
2024/02/20 02:44:15;;;;;;;;;;;;;;;;;;4996132;28;20037;-47
2024/02/20 02:46:41;;;;;;;177.98;107.22;;;;;;;;;;4994919;28;19964;-47
2024/02/20 02:49:07;;;;;;;172.88;103.22;;;;;;;;;;4994553;28;20022;-46
2024/02/20 02:51:34;;;;;;;174.50;103.57;;;;;;;;;;4995504;28;20471;-46
2024/02/20 02:54:00;;;;;;;172.68;108.68;;;;;;;;;;4995150;28;20105;-45
2024/02/20 02:56:28;;;;;;;177.20;105.83;;;;;;;;;;4995076;28;20052;-48
2024/02/20 02:58:54;;;;;;;160.98;104.95;;;;;;;;;;4995076;28;20764;-45
2024/02/20 03:01:21;;;;;;;173.10;111.03;;;;;;;;;;4994726;28;20544;-46
2024/02/20 03:03:47;;;;;;;169.27;109.13;;;;;;;;;;4993554;28;20034;-46
2024/02/20 03:06:13;;;;;;;166.85;106.15;;;;;;;;;;4994613;28;20070;-46
2024/02/20 03:08:44;;;;;;;169.68;109.53;;;;;;;;;;4994370;28;20088;-48
2024/02/20 03:11:11;;;;;;;177.18;109.20;;;;;;;;;;4994784;28;20026;-48
2024/02/20 03:13:37;;;;;;;184.75;114.80;;;;;;;;;;4994534;28;20504;-46
2024/02/20 03:16:08;;;;;;;173.03;112.93;;;;;;;;;;4994347;28;20027;-47
2024/02/20 03:18:37;;;;;;;181.60;111.85;;;;;;;;;;4994303;28;20506;-50
2024/02/20 03:21:04;;;;;;;175.45;110.90;;;;;;;;;;4992963;28;20023;-48
2024/02/20 03:23:31;;;;;;;188.52;118.38;;;;;;;;;;4993727;28;20041;-46
2024/02/20 03:25:58;;;;;;;183.10;115.63;;;;;;;;;;4994245;28;20037;-46
2024/02/20 03:28:29;;;;;;;172.65;109.43;;;;;;;;;;4994288;28;20022;-48
2024/02/20 03:30:55;;;;;;;185.48;114.50;;;;;;;;;;4975144;28;20027;-46
2024/02/20 03:33:23;;;;;;;179.68;114.35;;;;;;;;;;4980372;28;20517;-47
2024/02/20 03:35:52;;;;;;;175.65;113.72;;;;;;;;;;4993108;28;20042;-48
2024/02/20 03:38:20;;;;;;;184.27;113.72;;;;;;;;;;4993216;28;20030;-46
2024/02/20 03:40:46;;;;;;;167.70;105.35;;;;;;;;;;4992735;28;20038;-45
2024/02/20 03:43:13;;;;;;;184.90;115.68;;;;;;;;;;4994158;28;20030;-46
2024/02/20 03:45:39;;;;;;;166.13;107.97;;;;;;;;;;4976265;28;20026;-46
2024/02/20 03:48:05;;;;;;;184.50;115.10;;;;;;;;;;4992795;28;20070;-46
2024/02/20 03:50:33;;;;;;;166.82;109.10;;;;;;;;;;4992689;28;20033;-45
2024/02/20 03:53:01;;;;;;;178.95;113.60;;;;;;;;;;4993899;28;20391;-48
2024/02/20 03:55:27;;;;;;;182.10;115.70;;;;;;;;;;4992293;28;20030;-47
2024/02/20 03:57:53;;;;;;;197.10;122.93;;;;;;;;;;4993882;28;20491;-47
2024/02/20 04:00:24;;;;;;;188.98;116.50;;;;;;;;;;4993906;28;20062;-46
2024/02/20 04:02:50;;;;;;;175.48;112.88;;;;;;;;;;4993692;28;20100;-47
2024/02/20 04:05:18;;;;;;;185.63;115.65;;;;;;;;;;4993534;28;20030;-47
2024/02/20 04:07:46;;;;;;;206.18;125.38;;;;;;;;;;4993869;28;20395;-46
2024/02/20 04:10:13;;;;;;;185.85;113.38;;;;;;;;;;4993670;28;20026;-49
2024/02/20 04:12:39;;;;;;;177.88;108.38;;;;;;;;;;4993772;28;20113;-47
2024/02/20 04:15:07;;;;;;;189.02;111.07;;;;;;;;;;4993122;28;20034;-45
2024/02/20 04:17:33;;;;;;;;;;;;;;;;;;4993834;28;20083;-46
2024/02/20 04:20:01;;;;;;;187.40;110.28;;;;;;;;;;4993620;28;19988;-46
2024/02/20 04:22:29;;;;;;;186.05;110.95;;;;;;;;;;4993642;28;20483;-46
2024/02/20 04:24:56;;;;;;;197.57;116.47;;;;;;;;;;4993513;28;20514;-48
2024/02/20 04:27:22;;;;;;;177.75;109.85;;;;;;;;;;4991799;28;20014;-49
2024/02/20 04:29:48;;;;;;;181.13;111.60;;;;;;;;;;4993080;28;20030;-46
2024/02/20 04:32:14;;;;;;;181.35;109.68;;;;;;;;;;4992305;28;20022;-48
2024/02/20 04:34:40;;;;;;;192.48;117.28;;;;;;;;;;4993426;28;20027;-47
2024/02/20 04:37:07;;;;;;;192.63;114.43;;;;;;;;;;4992833;28;20026;-46
2024/02/20 04:39:33;;;;;;;195.50;115.15;;;;;;;;;;4992730;28;20097;-46
2024/02/20 04:41:59;;;;;;;195.00;113.85;;;;;;;;;;4993310;28;20105;-46
2024/02/20 04:44:25;;;;;;;181.50;109.43;;;;;;;;;;4991875;28;20056;-47
2024/02/20 04:46:51;;;;;;;188.73;111.95;;;;;;;;;;4992422;28;20030;-44
2024/02/20 04:49:18;;;;;;;192.90;114.80;;;;;;;;;;4991723;28;20126;-46
2024/02/20 04:51:44;;;;;;;186.93;114.43;;;;;;;;;;4992784;28;20031;-47
2024/02/20 04:54:10;;;;;;;190.02;110.07;;;;;;;;;;4992616;28;20041;-47
2024/02/20 04:56:36;;;;;;;186.82;113.20;;;;;;;;;;4992474;28;20069;-47
2024/02/20 04:59:03;;;;;;;189.43;111.03;;;;;;;;;;4992408;28;20038;-45
2024/02/20 05:01:29;;;;;;;192.20;110.68;;;;;;;;;;4992159;28;20034;-45
2024/02/20 05:03:55;;;;;;;181.07;104.93;;;;;;;;;;4991124;28;20146;-46
2024/02/20 05:06:22;;;;;;;170.80;108.03;;;;;;;;;;4990813;28;20443;-47
2024/02/20 05:08:48;;;;;;;183.93;109.03;;;;;;;;;;4990936;28;20026;-46
2024/02/20 05:11:15;;;;;;;193.40;112.50;;;;;;;;;;4991417;28;20034;-46
2024/02/20 05:13:41;;;;;;;217.73;118.78;;;;;;;;;;4991065;28;20672;-47
2024/02/20 05:16:07;;;;;;;192.68;111.82;;;;;;;;;;4991638;28;20519;-45
2024/02/20 05:18:34;;;;;;;181.02;107.20;;;;;;;;;;4992656;28;20412;-46
2024/02/20 05:21:00;;;;;;;191.45;110.85;;;;;;;;;;4991392;28;20034;-46
2024/02/20 05:23:26;;;;;;;178.95;102.22;;;;;;;;;;4992563;28;20041;-47
2024/02/20 05:25:52;;;;;;;169.57;99.05;;;;;;;;;;4992380;28;20038;-47
2024/02/20 05:28:18;;;;;;;154.82;99.03;;;;;;;;;;4992566;28;20510;-49
2024/02/20 05:30:45;;;;;;;157.90;96.00;;;;;;;;;;4992591;28;20022;-45
2024/02/20 05:33:12;;;;;;;182.15;103.45;;;;;;;;;;4991310;28;20026;-46
2024/02/20 05:35:38;;;;;;;170.25;98.47;;;;;;;;;;4991014;28;20030;-46
2024/02/20 05:38:06;;;;;;;170.93;102.27;;;;;;;;;;4992559;28;20459;-45
2024/02/20 05:40:32;;;;;;;167.07;100.38;;;;;;;;;;4974958;28;20273;-46
2024/02/20 05:42:58;;;;;;;165.63;103.43;;;;;;;;;;4992131;28;20038;-46
2024/02/20 05:45:25;;;;;;;152.98;93.53;;;;;;;;;;4992103;28;20034;-46
2024/02/20 05:47:51;;;;;;;179.65;108.63;;;;;;;;;;4991208;28;20035;-46
2024/02/20 05:50:17;;;;;;;176.32;103.80;;;;;;;;;;4991119;28;20037;-48
2024/02/20 05:52:45;;;;;;;171.07;99.65;;;;;;;;;;4992300;28;20023;-46
2024/02/20 05:55:11;;;;;;;195.05;114.30;;;;;;;;;;4992564;28;20458;-47
2024/02/20 05:57:38;;;;;;;177.02;105.82;;;;;;;;;;4992279;28;20026;-47
2024/02/20 06:00:05;;;;;;;185.45;106.13;;;;;;;;;;4990804;28;20042;-45
2024/02/20 06:02:32;;;;;;;;;;;;;;;;;;4991369;28;20034;-47
2024/02/20 06:04:58;;;;;;;185.35;108.93;;;;;;;;;;4990856;28;19916;-47
2024/02/20 06:07:24;;;;;;;195.80;115.20;;;;;;;;;;4990803;28;20030;-45
2024/02/20 06:09:51;;;;;;;189.85;111.10;;;;;;;;;;4992030;28;20116;-46
2024/02/20 06:12:17;;;;;;;165.10;96.33;;;;;;;;;;4992146;28;20116;-45
2024/02/20 06:14:43;;;;;;;151.32;90.13;;;;;;;;;;4992031;28;20265;-48
2024/02/20 06:17:10;;;;;;;132.25;86.47;;;;;;;;;;4990636;28;20057;-45
2024/02/20 06:19:36;;;;;;;133.43;86.57;;;;;;;;;;4990637;28;20030;-45
2024/02/20 06:22:03;;;;;;;133.00;83.63;;;;;;;;;;4992110;28;20116;-46
2024/02/20 06:24:29;;;;;;;175.25;103.75;;;;;;;;;;4992053;28;20039;-46
2024/02/20 06:26:55;;;;;;;184.03;110.20;;;;;;;;;;4991780;28;20113;-46
2024/02/20 06:29:22;;;;;;;171.77;106.00;;;;;;;;;;4991955;28;20143;-47
2024/02/20 06:31:51;;;;;;;159.20;105.90;;;;;;;;;;4991933;28;20023;-46
2024/02/20 06:34:17;;;;;;;137.63;89.95;;;;;;;;;;4990491;28;20121;-46
2024/02/20 06:36:44;;;;;;;143.88;89.85;;;;;;;;;;4990485;28;20117;-47
2024/02/20 06:39:10;;;;;;;137.13;89.00;;;;;;;;;;4992069;28;20034;-47
2024/02/20 06:41:36;;;;;;;148.10;90.05;;;;;;;;;;4992007;28;20062;-47
2024/02/20 06:44:03;;;;;;;129.53;88.03;;;;;;;;;;4991888;28;20082;-47
2024/02/20 06:46:29;;;;;;;136.85;87.43;;;;;;;;;;4991557;28;20541;-47
2024/02/20 06:48:55;;;;;;;130.57;82.23;;;;;;;;;;4990558;28;20030;-46
2024/02/20 06:51:27;;;;;;;120.82;80.65;;;;;;;;;;4991833;28;20443;-45
2024/02/20 06:53:54;;;;;;;134.23;86.82;;;;;;;;;;4991807;28;20456;-47
2024/02/20 06:56:20;;;;;;;125.25;79.20;;;;;;;;;;4994445;28;20026;-46
2024/02/20 06:58:46;;;;;;;247.70;96.57;;;;;;;;;;4995478;28;20503;-47
2024/02/20 07:01:12;;;;;;;126.50;79.72;;;;;;;;;;4995083;28;20036;-47
2024/02/20 07:03:39;;;;;;;143.65;79.13;;;;;;;;;;4993887;28;20034;-46
2024/02/20 07:06:05;;;;;;;127.60;71.05;;;;;;;;;;4994930;28;20038;-47
2024/02/20 07:08:31;;;;;;;126.40;69.97;;;;;;;;;;4993709;28;20550;-46
2024/02/20 07:10:58;;;;;;;396.67;96.50;;;;;;;;;;4995175;28;20110;-47
2024/02/20 07:13:24;;;;;;;318.98;84.75;;;;;;;;;;4995341;28;20034;-47
2024/02/20 07:15:50;;;;;;;513.17;104.05;;;;;;;;;;4993167;28;20104;-47
2024/02/20 07:18:17;;;;;;;521.65;108.75;;;;;;;;;;4993535;28;20503;-46
2024/02/20 07:20:43;;;;;;;234.40;80.22;;;;;;;;;;4982071;28;20078;-46
2024/02/20 07:23:09;;;;;;;166.90;76.17;;;;;;;;;;4986501;28;20031;-46
2024/02/20 07:25:35;;;;;;;120.57;72.95;;;;;;;;;;4975179;28;20030;-47
2024/02/20 07:28:02;;;;;;;261.50;78.75;;;;;;;;;;4985206;28;20121;-45
2024/02/20 07:30:30;;;;;;;105.27;72.43;;;;;;;;;;4974075;28;20031;-46
2024/02/20 07:32:57;;;;;;;107.35;75.00;;;;;;;;;;4986088;28;20030;-45
2024/02/20 07:35:24;;;;;;;108.78;72.85;;;;;;;;;;4974990;28;20026;-46
2024/02/20 07:37:50;;;;;;;103.03;70.80;;;;;;;;;;4985237;28;20030;-44
2024/02/20 07:40:16;;;;;;;100.13;70.80;;;;;;;;;;4975963;28;20027;-47
2024/02/20 07:42:43;;;;;;;98.47;70.50;;;;;;;;;;4984052;28;20049;-45
2024/02/20 07:45:10;;;;;;;103.07;73.55;;;;;;;;;;4976429;28;20026;-45
2024/02/20 07:47:36;;;;;;;106.18;75.45;;;;;;;;;;4983115;28;20037;-46
2024/02/20 07:50:03;;;;;;;105.30;76.70;;;;;;;;;;4977559;28;20023;-45
2024/02/20 07:52:29;;;;;;;;;;;;;;;;;;4982842;28;20383;-46
2024/02/20 07:54:56;;;;;;;133.93;87.13;;;;;;;;;;4978527;28;19992;-46
2024/02/20 07:57:22;;;;;;;168.55;100.90;;;;;;;;;;4980923;28;20057;-45
2024/02/20 07:59:48;;;;;;;159.93;98.10;;;;;;;;;;4977805;28;20038;-47
2024/02/20 08:02:14;;;;;;;163.13;101.78;;;;;;;;;;4979966;28;20433;-46
2024/02/20 08:04:41;;;;;;;173.27;104.78;;;;;;;;;;4980241;28;20027;-47
2024/02/20 08:07:07;;;;;;;163.43;104.75;;;;;;;;;;4978688;28;20114;-49
2024/02/20 08:09:34;;;;;;;154.18;99.70;;;;;;;;;;4980999;28;20089;-45
2024/02/20 08:12:00;;;;;;;170.63;104.85;;;;;;;;;;4977930;28;20496;-46
2024/02/20 08:14:26;;;;;;;159.88;103.43;;;;;;;;;;4980635;28;20031;-47
2024/02/20 08:16:52;;;;;;;161.93;102.68;;;;;;;;;;4980800;28;20027;-48
2024/02/20 08:19:18;;;;;;;160.40;101.65;;;;;;;;;;4982819;28;20104;-47
2024/02/20 08:21:48;;;;;;;152.15;98.85;;;;;;;;;;4976991;28;20113;-47
2024/02/20 08:24:15;;;;;;;150.40;100.15;;;;;;;;;;4980088;28;20031;-47
2024/02/20 08:26:41;;;;;;;167.77;105.03;;;;;;;;;;4976450;28;20043;-48
2024/02/20 08:29:08;;;;;;;169.30;105.70;;;;;;;;;;4982793;28;20037;-46
2024/02/20 08:31:34;;;;;;;165.27;105.30;;;;;;;;;;4976715;28;20049;-46
2024/02/20 08:34:01;;;;;;;166.57;109.18;;;;;;;;;;4982524;28;20394;-47
2024/02/20 08:36:27;;;;;;;171.68;107.93;;;;;;;;;;4975185;28;20022;-48
2024/02/20 08:38:53;;;;;;;176.25;113.13;;;;;;;;;;4965089;28;20550;-46
2024/02/20 08:41:19;;;;;;;172.35;112.40;;;;;;;;;;4975121;28;20026;-46
2024/02/20 08:43:48;;;;;;;194.45;115.88;;;;;;;;;;4981318;28;20045;-47
2024/02/20 08:46:14;;;;;;;178.25;115.90;;;;;;;;;;4975354;28;20030;-47
2024/02/20 08:48:40;;;;;;;177.65;115.07;;;;;;;;;;4982875;28;20038;-47
2024/02/20 08:51:07;;;;;;;179.50;115.47;;;;;;;;;;4974834;28;20477;-47
2024/02/20 08:53:33;;;;;;;171.13;115.38;;;;;;;;;;4984024;28;20031;-46
2024/02/20 08:55:59;;;;;;;190.73;121.47;;;;;;;;;;4973998;28;20030;-46
2024/02/20 08:58:25;;;;;;;183.27;120.00;;;;;;;;;;4984125;28;20034;-47
2024/02/20 09:00:52;;;;;;;186.45;123.55;;;;;;;;;;4973658;28;20482;-46
2024/02/20 09:03:18;;;;;;;198.27;132.57;;;;;;;;;;4981593;28;20040;-46
2024/02/20 09:05:45;;;;;;;190.50;127.57;;;;;;;;;;4992912;28;20053;-47
2024/02/20 09:08:11;;;;;;;194.18;128.43;;;;;;;;;;4984914;28;20030;-47
2024/02/20 09:10:38;;;;;;;190.48;125.43;;;;;;;;;;4973446;28;20026;-46
2024/02/20 09:13:05;;;;;;;;;;;;;;;;;;4983655;28;20085;-45
2024/02/20 09:15:34;;;;;;;186.20;123.15;;;;;;;;;;4973253;28;20502;-47
2024/02/20 09:18:00;;;;;;;180.95;117.90;;;;;;;;;;4983619;28;20030;-46
2024/02/20 09:20:26;;;;;;;178.80;120.85;;;;;;;;;;4972149;28;20038;-45
2024/02/20 09:22:52;;;;;;;180.93;117.53;;;;;;;;;;4983557;28;20023;-47
2024/02/20 09:25:18;;;;;;;166.83;113.83;;;;;;;;;;4973490;28;20484;-47
2024/02/20 09:27:45;;;;;;;178.10;110.15;;;;;;;;;;4982626;28;20320;-45
2024/02/20 09:30:11;;;;;;;169.32;113.93;;;;;;;;;;4974821;28;20558;-46
2024/02/20 09:32:39;;;;;;;169.53;113.97;;;;;;;;;;4973305;28;20031;-47
2024/02/20 09:35:06;;;;;;;169.82;115.80;;;;;;;;;;4970504;28;20277;-47
2024/02/20 09:37:32;;;;;;;165.02;113.88;;;;;;;;;;4973046;28;20026;-47
2024/02/20 09:39:58;;;;;;;172.88;111.90;;;;;;;;;;4973172;28;20035;-46
2024/02/20 09:42:26;;;;;;;161.20;113.22;;;;;;;;;;4973244;28;20023;-48
2024/02/20 09:44:54;;;;;;;169.50;112.72;;;;;;;;;;4973064;28;20539;-48
2024/02/20 09:47:22;;;;;;;170.45;116.13;;;;;;;;;;4972863;28;20531;-49
2024/02/20 09:49:53;;;;;;;168.18;114.30;;;;;;;;;;4972925;28;20105;-47
2024/02/20 09:52:20;;;;;;;171.13;112.65;;;;;;;;;;4972863;28;20162;-47
2024/02/20 09:54:47;;;;;;;166.50;111.28;;;;;;;;;;4972826;28;20027;-45
2024/02/20 09:57:13;;;;;;;;;;;;;;;;;;4973150;28;20495;-48
2024/02/20 09:59:39;;;;;;;166.77;108.22;;;;;;;;;;4972748;28;19914;-47
2024/02/20 10:02:05;;;;;;;162.57;109.00;;;;;;;;;;4972817;28;20042;-46
2024/02/20 10:04:34;;;;;;;158.50;107.90;;;;;;;;;;4972750;28;20026;-47
2024/02/20 10:07:04;;;;;;;160.13;108.07;;;;;;;;;;4971440;28;20022;-47
2024/02/20 10:09:31;;;;;;;169.65;112.10;;;;;;;;;;4972827;28;20033;-47
2024/02/20 10:11:58;;;;;;;160.85;109.90;;;;;;;;;;4972718;28;20023;-47
2024/02/20 10:14:27;;;;;;;161.90;111.22;;;;;;;;;;4972956;28;20027;-47
2024/02/20 10:17:00;;;;;;;160.18;108.72;;;;;;;;;;4972461;28;20023;-47
2024/02/20 10:19:27;;;;;;;153.18;105.38;;;;;;;;;;4971326;28;20027;-47
2024/02/20 10:21:53;;;;;;;163.57;108.57;;;;;;;;;;4972773;28;20267;-47
2024/02/20 10:24:19;;;;;;;157.17;107.53;;;;;;;;;;4972722;28;20034;-46
2024/02/20 10:26:46;;;;;;;160.52;111.32;;;;;;;;;;4971137;28;20106;-47
2024/02/20 10:29:13;;;;;;;161.20;108.72;;;;;;;;;;4972699;28;20094;-46
2024/02/20 10:31:40;;;;;;;156.13;106.82;;;;;;;;;;4976012;28;20065;-46
2024/02/20 10:34:06;;;;;;;150.15;105.70;;;;;;;;;;4976292;28;20039;-49
2024/02/20 10:36:32;;;;;;;153.50;104.97;;;;;;;;;;4976228;28;20391;-47
2024/02/20 10:39:05;;;;;;;153.25;107.85;;;;;;;;;;4976133;28;20266;-47
2024/02/20 10:41:32;;;;;;;155.68;108.03;;;;;;;;;;4976253;28;20436;-48
2024/02/20 10:43:59;;;;;;;143.98;99.25;;;;;;;;;;4976540;28;20043;-47
2024/02/20 10:46:30;;;;;;;144.77;102.13;;;;;;;;;;4975779;28;20510;-47
2024/02/20 10:48:58;;;;;;;148.95;105.57;;;;;;;;;;4974720;28;20506;-46
2024/02/20 10:51:27;;;;;;;145.50;98.72;;;;;;;;;;4976185;28;20502;-45
2024/02/20 10:53:55;;;;;;;134.30;97.47;;;;;;;;;;4975889;28;20480;-46
2024/02/20 10:56:22;;;;;;;131.13;92.78;;;;;;;;;;4975733;28;20400;-47
2024/02/20 10:58:50;;;;;;;136.45;92.63;;;;;;;;;;4975555;28;20039;-45
2024/02/20 11:01:16;;;;;;;122.43;83.25;;;;;;;;;;4975812;28;20053;-48
2024/02/20 11:03:43;;;;;;;119.88;83.68;;;;;;;;;;4975788;28;20031;-48
2024/02/20 11:06:11;;;;;;;119.72;83.20;;;;;;;;;;4975502;28;20038;-47
2024/02/20 11:08:37;;;;;;;121.75;85.10;;;;;;;;;;4975566;28;20023;-45
2024/02/20 11:11:13;;;;;;;108.27;77.77;;;;;;;;;;4975616;28;20027;-46
2024/02/20 11:13:40;;;;;;;105.00;74.80;;;;;;;;;;4975532;28;20115;-49
2024/02/20 11:16:13;;;;;;;111.95;75.90;;;;;;;;;;4973997;28;20030;-47
2024/02/20 11:18:59;;;;;;;108.70;78.20;;;;;;;;;;4981599;28;20026;-47
2024/02/20 11:21:29;;;;;;;121.47;84.25;;;;;;;;;;4992714;28;20583;-46
2024/02/20 11:23:56;;;;;;;117.65;85.85;;;;;;;;;;5009877;28;20029;-48
2024/02/20 11:26:29;;;;;;;125.47;86.17;;;;;;;;;;4995650;28;20063;-49
2024/02/20 11:28:56;;;;;;;123.10;91.03;;;;;;;;;;5008171;28;20031;-50
2024/02/20 11:31:26;;;;;;;122.90;88.53;;;;;;;;;;4992450;28;20030;-46
2024/02/20 11:33:53;;;;;;;123.30;90.38;;;;;;;;;;4992916;28;20081;-46
2024/02/20 11:36:19;;;;;;;110.05;81.97;;;;;;;;;;4992397;28;20068;-48
2024/02/20 11:38:46;;;;;;;121.45;86.18;;;;;;;;;;4990939;28;20035;-47
2024/02/20 11:41:12;;;;;;;122.87;87.67;;;;;;;;;;4991997;28;20034;-47
2024/02/20 11:43:38;;;;;;;116.30;83.90;;;;;;;;;;4993007;28;20285;-50
2024/02/20 11:46:04;;;;;;;124.35;86.63;;;;;;;;;;4992293;28;20088;-47
2024/02/20 11:48:31;;;;;;;108.70;80.10;;;;;;;;;;4992308;28;20030;-46
2024/02/20 11:50:57;;;;;;;111.93;80.15;;;;;;;;;;4991014;28;20447;-47
2024/02/20 11:53:23;;;;;;;103.80;76.15;;;;;;;;;;4991054;28;20034;-47
2024/02/20 11:55:53;;;;;;;107.03;78.57;;;;;;;;;;4987772;28;20034;-49
2024/02/20 11:58:21;;;;;;;105.30;76.28;;;;;;;;;;4991933;28;20427;-51
2024/02/20 12:00:49;;;;;;;117.75;79.65;;;;;;;;;;4992879;28;20113;-47
2024/02/20 12:03:24;;;;;;;102.70;76.45;;;;;;;;;;4991677;28;20530;-47
2024/02/20 12:05:51;;;;;;;107.55;78.13;;;;;;;;;;4987525;28;20029;-51
2024/02/20 12:08:18;;;;;;;107.80;77.85;;;;;;;;;;4989779;28;20515;-50
2024/02/20 12:10:44;;;;;;;106.13;77.38;;;;;;;;;;4990407;28;20165;-47
2024/02/20 12:13:18;;;;;;;108.00;79.90;;;;;;;;;;4991147;28;20038;-51
2024/02/20 12:15:48;;;;;;;110.10;79.47;;;;;;;;;;4992104;28;20041;-48
2024/02/20 12:18:28;;;;;;;114.43;84.13;;;;;;;;;;4992141;28;20491;-51
2024/02/20 12:21:05;;;;;;;102.53;77.50;;;;;;;;;;4989897;28;20509;-47
2024/02/20 12:23:31;;;;;;;108.77;76.57;;;;;;;;;;4972062;28;20050;-49
2024/02/20 12:26:07;;;;;;;102.57;73.85;;;;;;;;;;4983882;28;20633;-48
2024/02/20 12:28:36;;;;;;;106.97;75.90;;;;;;;;;;4990229;28;20061;-47
2024/02/20 12:31:04;;;;;;;96.68;70.43;;;;;;;;;;4991871;28;20030;-48
2024/02/20 12:33:31;;;;;;;95.50;69.88;;;;;;;;;;4991899;28;20060;-49
2024/02/20 12:35:58;;;;;;;104.53;73.22;;;;;;;;;;4991865;28;20040;-47
2024/02/20 12:38:28;;;;;;;96.60;68.97;;;;;;;;;;4991892;28;20172;-49
2024/02/20 12:40:56;;;;;;;96.70;71.20;;;;;;;;;;4991559;28;20060;-49
2024/02/20 12:43:22;;;;;;;;;;;;;;;;;;4991588;28;20093;-46
2024/02/20 12:45:48;;;;;;;98.22;71.97;;;;;;;;;;4983426;28;19921;-50
2024/02/20 12:48:14;;;;;;;100.53;68.50;;;;;;;;;;4979215;28;20023;-48
2024/02/20 12:50:40;;;;;;;92.23;67.63;;;;;;;;;;4986892;28;20714;-52
2024/02/20 12:53:09;;;;;;;84.43;63.58;;;;;;;;;;4990695;28;20419;-50
2024/02/20 12:55:37;;;;;;;;;;;;;;;;;;4991666;28;20479;-51
2024/02/20 12:58:07;;;;;;;76.82;57.47;;;;;;;;;;4991137;28;19934;-47
2024/02/20 13:00:34;;;;;;;93.72;69.35;;;;;;;;;;4991479;28;20117;-47
2024/02/20 13:03:01;;;;;;;83.53;64.68;;;;;;;;;;4990361;28;20038;-50
2024/02/20 13:05:28;;;;;;;96.35;70.18;;;;;;;;;;5015485;23;20037;-54
2024/02/20 13:07:54;;;;;;;90.35;70.00;;;;;;;;;;5014047;28;20026;-52
2024/02/20 13:10:21;;;;;;;90.07;69.70;;;;;;;;;;5027272;28;20038;-54
2024/02/20 13:12:47;;;;;;;89.43;70.03;;;;;;;;;;5029194;28;20037;-55
2024/02/20 13:15:13;;;;;;;90.18;70.45;;;;;;;;;;5017847;28;20076;-56
2024/02/20 13:17:39;;;;;;;86.68;68.15;;;;;;;;;;5007322;28;20371;-54
2024/02/20 13:20:06;;;;;;;83.10;66.40;;;;;;;;;;5006538;28;20033;-56
2024/02/20 13:22:35;;;;;;;81.68;64.07;;;;;;;;;;4996817;28;20022;-58
2024/02/20 13:25:02;;;;;;;79.93;64.78;;;;;;;;;;5003580;28;20065;-53
2024/02/20 13:27:28;;;;;;;;;;;;;;;;;;5007672;28;20131;-56
2024/02/20 13:29:54;;;;;;;76.60;61.15;;;;;;;;;;5007178;28;19917;-54
2024/02/20 13:32:20;;;;;;;69.47;56.55;;;;;;;;;;4993090;28;20027;-55
2024/02/20 13:34:47;;;;;;;79.00;63.30;;;;;;;;;;5003683;28;20100;-58
2024/02/20 13:37:13;;;;;;;79.85;63.50;;;;;;;;;;5002648;28;20041;-55
2024/02/20 13:39:40;;;;;;;82.25;64.60;;;;;;;;;;4989721;28;20037;-54
2024/02/20 13:42:06;;;;;;;79.47;64.93;;;;;;;;;;4999221;28;20030;-58
2024/02/20 13:44:32;;;;;;;84.80;65.45;;;;;;;;;;5010586;28;20774;-56
2024/02/20 13:46:58;;;;;;;80.60;66.18;;;;;;;;;;5003063;28;20033;-55
2024/02/20 13:49:26;;;;;;;80.72;65.35;;;;;;;;;;4994542;28;20030;-56
2024/02/20 13:51:52;;;;;;;88.93;67.35;;;;;;;;;;4995116;28;20505;-53
2024/02/20 13:54:19;;;;;;;66.28;52.92;;;;;;;;;;5002926;28;20033;-56
2024/02/20 13:56:46;;;;;;;59.90;48.97;;;;;;;;;;5004397;28;20030;-56
2024/02/20 13:59:12;;;;;;;;;;;;;;;;;;5005001;28;20046;-56
2024/02/20 14:01:39;;;;;;;75.82;62.00;;;;;;;;;;5009898;28;20357;-56
2024/02/20 14:04:05;;;;;;;76.57;63.65;;;;;;;;;;4993246;28;20406;-54
2024/02/20 14:06:35;;;;;;;82.20;62.92;;;;;;;;;;4995944;28;20030;-51